Time;durP1;ratioP1;P1;durP2;ratioP2;P2;SDS_P1;SDS_P2;PMS_P1;PMS_P2;Temp;Humidity;BMP_temperature;BMP_pressure;BME280_temperature;BME280_humidity;BME280_pressure;Samples;Min_cycle;Max_cycle;Signal;HPM_P1;HPM_P2
2024/01/13 00:02:20;;;;;;;12.30;6.80;;;;;;;2.36;78.94;101290.74;108651;1257;138715;-72
2024/01/13 00:04:47;;;;;;;11.70;6.50;;;;;;;2.42;78.70;101291.00;108957;1257;65002;-72
2024/01/13 00:07:13;;;;;;;12.60;7.30;;;;;;;2.48;78.69;101284.98;108906;1257;71426;-72
2024/01/13 00:09:40;;;;;;;10.60;5.90;;;;;;;2.54;78.53;101284.80;108881;1255;138233;-72
2024/01/13 00:12:07;;;;;;;12.60;5.70;;;;;;;2.58;78.61;101285.27;108367;1256;59363;-72
2024/01/13 00:14:33;;;;;;;13.40;6.60;;;;;;;2.63;78.55;101282.80;104806;1257;139000;-71
2024/01/13 00:17:00;;;;;;;13.90;6.40;;;;;;;2.65;78.53;101282.09;104905;1256;65378;-71
2024/01/13 00:19:27;;;;;;;14.30;5.90;;;;;;;2.67;78.41;101279.59;104972;1258;75664;-70
2024/01/13 00:21:53;;;;;;;12.60;5.60;;;;;;;2.69;78.30;101276.23;104887;1260;137592;-71
2024/01/13 00:24:20;;;;;;;11.00;6.70;;;;;;;2.72;78.46;101273.73;104757;1260;61119;-72
2024/01/13 00:26:47;;;;;;;17.50;7.30;;;;;;;2.75;78.51;101269.01;104769;1257;138314;-70
2024/01/13 00:29:13;;;;;;;10.10;5.80;;;;;;;2.77;78.26;101262.52;104756;1257;67576;-71
2024/01/13 00:31:40;;;;;;;15.70;5.70;;;;;;;2.78;78.33;101258.27;104567;1260;72097;-72
2024/01/13 00:34:09;;;;;;;10.80;5.60;;;;;;;2.79;78.30;101254.71;104462;1264;138299;-71
2024/01/13 00:36:35;;;;;;;10.10;5.80;;;;;;;2.79;78.32;101252.84;104762;1261;61251;-72
2024/01/13 00:39:02;;;;;;;10.60;5.60;;;;;;;2.81;78.31;101255.52;104608;1260;138278;-71
2024/01/13 00:41:29;;;;;;;15.00;6.50;;;;;;;2.82;78.35;101254.23;104588;1260;67032;-71
2024/01/13 00:43:56;;;;;;;13.50;7.00;;;;;;;2.82;78.22;101261.01;108727;1257;72286;-71
2024/01/13 00:46:23;;;;;;;10.60;5.80;;;;;;;2.83;78.19;101259.13;108555;1257;138422;-71
2024/01/13 00:48:49;;;;;;;10.70;6.30;;;;;;;2.85;78.12;101259.76;108663;1256;60291;-72
2024/01/13 00:51:16;;;;;;;14.90;6.10;;;;;;;2.87;78.25;101252.13;108532;1257;138830;-72
2024/01/13 00:53:43;;;;;;;12.00;7.00;;;;;;;2.89;78.11;101252.45;108797;1258;65025;-71
2024/01/13 00:56:09;;;;;;;11.90;6.40;;;;;;;2.93;78.09;101259.42;108575;1256;138691;-60
2024/01/13 00:58:37;;;;;;;11.10;5.90;;;;;;;2.95;77.91;101260.73;107732;1256;58984;-60
2024/01/13 01:01:04;;;;;;;12.00;5.70;;;;;;;2.95;77.87;101257.13;108631;1257;60338;-60
2024/01/13 01:03:30;;;;;;;12.70;6.10;;;;;;;2.96;77.88;101256.52;108536;1257;137842;-60
2024/01/13 01:06:00;;;;;;;19.30;5.30;;;;;;;2.97;77.93;101262.80;108794;1257;64640;-59
2024/01/13 01:08:27;;;;;;;9.70;6.20;;;;;;;2.96;77.83;101262.75;108686;1257;138553;-59
2024/01/13 01:10:53;;;;;;;12.20;6.30;;;;;;;2.95;77.80;101259.52;108814;1257;58977;-60
2024/01/13 01:13:20;;;;;;;8.40;5.00;;;;;;;2.90;77.75;101259.27;108533;1258;60686;-59
2024/01/13 01:15:47;;;;;;;14.80;6.40;;;;;;;2.88;77.77;101262.55;108460;1257;138298;-59
2024/01/13 01:18:13;;;;;;;11.80;5.20;;;;;;;2.85;77.76;101265.72;108673;1257;64989;-59
2024/01/13 01:20:40;;;;;;;14.90;5.80;;;;;;;2.84;77.95;101263.74;108615;1257;139154;-71
2024/01/13 01:23:07;;;;;;;11.60;5.60;;;;;;;2.85;77.95;101265.50;108969;1257;58945;-60
2024/01/13 01:25:33;;;;;;;12.60;5.40;;;;;;;2.87;78.07;101265.95;108838;1257;59985;-59
2024/01/13 01:28:00;;;;;;;14.10;5.30;;;;;;;2.88;78.04;101260.32;108632;1257;139244;-60
2024/01/13 01:30:26;;;;;;;10.50;5.40;;;;;;;2.88;78.01;101253.21;108548;1257;65706;-59
2024/01/13 01:32:53;;;;;;;13.20;6.00;;;;;;;2.89;77.92;101248.98;108427;1257;137847;-61
2024/01/13 01:35:20;;;;;;;10.10;5.20;;;;;;;2.91;78.07;101247.52;108584;1257;59039;-60
2024/01/13 01:37:47;;;;;;;11.80;4.80;;;;;;;2.91;77.91;101240.27;108698;1258;60139;-60
2024/01/13 01:40:15;;;;;;;11.60;5.70;;;;;;;2.92;77.89;101243.41;108731;1257;137951;-60
2024/01/13 01:42:42;;;;;;;11.60;5.80;;;;;;;2.92;77.92;101243.23;108102;1257;65508;-59
2024/01/13 01:45:09;;;;;;;12.80;5.60;;;;;;;2.90;77.93;101244.88;108436;1261;138486;-60
2024/01/13 01:47:35;;;;;;;11.80;6.40;;;;;;;2.89;78.03;101241.17;108576;1257;61119;-60
2024/01/13 01:50:02;;;;;;;15.30;5.70;;;;;;;2.89;77.93;101241.20;108545;1257;60568;-71
2024/01/13 01:52:29;;;;;;;13.90;6.10;;;;;;;2.90;77.95;101240.85;108734;1257;138390;-72
2024/01/13 01:54:56;;;;;;;12.80;5.30;;;;;;;2.91;78.17;101242.14;108920;1257;66286;-71
2024/01/13 01:57:22;;;;;;;10.30;5.50;;;;;;;2.89;78.05;101242.05;108495;1257;138413;-70
2024/01/13 01:59:50;;;;;;;10.00;5.20;;;;;;;2.90;77.88;101238.95;108490;1257;60597;-71
2024/01/13 02:02:17;;;;;;;14.90;5.80;;;;;;;2.89;77.95;101224.52;108530;1257;139070;-71
2024/01/13 02:04:44;;;;;;;13.40;5.50;;;;;;;2.90;77.97;101221.45;108554;1257;75949;-71
2024/01/13 02:07:11;;;;;;;10.70;5.40;;;;;;;2.88;77.96;101215.41;108903;1257;66243;-72
2024/01/13 02:09:37;;;;;;;13.70;5.40;;;;;;;2.85;78.03;101212.77;108790;1257;138334;-70
2024/01/13 02:12:05;;;;;;;14.00;5.80;;;;;;;2.83;77.88;101218.21;108594;1257;59130;-70
2024/01/13 02:14:31;;;;;;;12.90;5.80;;;;;;;2.82;77.98;101219.89;108455;1257;138557;-70
2024/01/13 02:16:58;;;;;;;10.80;5.90;;;;;;;2.80;78.05;101219.27;108539;1257;75251;-60
2024/01/13 02:19:30;;;;;;;10.10;5.10;;;;;;;2.79;78.11;101216.27;108617;1257;66535;-70
2024/01/13 02:21:57;;;;;;;10.90;5.00;;;;;;;2.77;78.20;101222.34;108569;1257;139063;-59
2024/01/13 02:24:24;;;;;;;12.30;5.50;;;;;;;2.75;78.11;101219.48;108858;1257;58973;-59
2024/01/13 02:26:50;;;;;;;13.80;5.30;;;;;;;2.76;78.16;101216.02;108830;1257;139166;-70
2024/01/13 02:29:17;;;;;;;9.60;4.50;;;;;;;2.77;78.10;101217.71;108791;1256;75599;-58
2024/01/13 02:31:44;;;;;;;9.20;4.90;;;;;;;2.79;78.23;101225.06;108660;1257;67267;-59
2024/01/13 02:34:11;;;;;;;9.10;4.60;;;;;;;2.80;78.11;101225.98;108588;1257;138161;-59
2024/01/13 02:36:37;;;;;;;9.30;4.30;;;;;;;2.81;78.08;101223.15;108617;1260;60836;-59
2024/01/13 02:39:04;;;;;;;10.00;5.10;;;;;;;2.83;78.25;101221.86;108751;1256;138555;-59
2024/01/13 02:41:31;;;;;;;12.30;4.60;;;;;;;2.84;78.26;101221.21;108835;1257;74126;-70
2024/01/13 02:43:57;;;;;;;12.60;4.90;;;;;;;2.87;78.26;101224.73;108570;1257;66819;-60
2024/01/13 02:46:24;;;;;;;10.50;4.70;;;;;;;2.89;78.18;101226.57;108524;1257;137996;-73
2024/01/13 02:48:52;;;;;;;10.80;4.90;;;;;;;2.89;78.19;101228.48;108534;1258;59542;-60
2024/01/13 02:51:20;;;;;;;10.10;5.20;;;;;;;2.88;78.11;101228.11;108526;1256;138466;-60
2024/01/13 02:53:46;;;;;;;10.70;4.90;;;;;;;2.89;78.20;101233.38;108933;1257;74303;-60
2024/01/13 02:56:13;;;;;;;10.00;4.70;;;;;;;2.89;78.22;101228.98;108855;1255;139189;-60
2024/01/13 02:58:40;;;;;;;11.10;5.00;;;;;;;2.89;78.13;101221.55;108668;1257;71993;-60
2024/01/13 03:01:07;;;;;;;11.90;5.50;;;;;;;2.89;78.11;101225.75;108660;1257;59311;-60
2024/01/13 03:03:34;;;;;;;12.70;5.00;;;;;;;2.89;78.10;101224.17;108562;1257;139085;-60
2024/01/13 03:06:03;;;;;;;9.50;5.00;;;;;;;2.88;78.19;101217.55;108679;1257;73382;-60
2024/01/13 03:08:29;;;;;;;10.50;5.20;;;;;;;2.89;78.18;101213.61;108745;1257;139483;-60
2024/01/13 03:10:56;;;;;;;9.70;5.00;;;;;;;2.89;78.28;101206.31;108832;1257;73946;-60
2024/01/13 03:13:23;;;;;;;9.60;4.60;;;;;;;2.89;78.25;101196.11;108649;1257;59711;-60
2024/01/13 03:15:49;;;;;;;9.30;4.20;;;;;;;2.90;78.20;101188.02;105443;1258;138383;-60
2024/01/13 03:18:16;;;;;;;6.50;4.80;;;;;;;2.91;78.07;101185.80;104653;1257;74485;-61
2024/01/13 03:20:43;;;;;;;10.60;4.80;;;;;;;2.91;78.06;101183.25;104600;1258;137881;-60
2024/01/13 03:23:10;;;;;;;8.40;4.70;;;;;;;2.91;78.22;101179.77;104800;1259;72882;-60
2024/01/13 03:25:36;;;;;;;10.80;5.50;;;;;;;2.91;78.25;101178.05;104831;1256;61250;-60
2024/01/13 03:28:04;;;;;;;12.60;5.20;;;;;;;2.89;78.13;101180.33;104524;1260;137507;-60
2024/01/13 03:30:31;;;;;;;10.30;4.50;;;;;;;2.86;78.09;101176.69;104485;1259;75247;-60
2024/01/13 03:32:57;;;;;;;9.10;5.20;;;;;;;2.84;78.13;101178.98;104452;1261;138529;-59
2024/01/13 03:35:24;;;;;;;7.20;4.30;;;;;;;2.81;78.08;101182.07;104474;1258;73016;-71
2024/01/13 03:37:51;;;;;;;9.50;5.10;;;;;;;2.80;78.27;101178.70;104836;1258;61188;-60
2024/01/13 03:40:17;;;;;;;12.20;5.20;;;;;;;2.79;78.35;101180.38;105059;1263;138428;-60
2024/01/13 03:42:45;;;;;;;9.60;4.70;;;;;;;2.78;78.38;101181.90;104506;1260;75494;-58
2024/01/13 03:45:14;;;;;;;11.80;5.10;;;;;;;2.79;78.36;101181.23;104497;1260;138857;-60
2024/01/13 03:47:41;;;;;;;9.90;5.00;;;;;;;2.79;78.37;101174.45;104605;1258;72244;-60
2024/01/13 03:50:08;;;;;;;8.60;4.60;;;;;;;2.80;78.50;101171.73;104575;1260;138527;-61
2024/01/13 03:52:35;;;;;;;9.50;5.10;;;;;;;2.79;78.28;101168.78;108926;1257;61714;-60
2024/01/13 03:55:02;;;;;;;8.40;4.70;;;;;;;2.79;78.23;101166.13;108958;1257;73658;-59
2024/01/13 03:57:29;;;;;;;8.20;4.70;;;;;;;2.79;78.45;101161.98;108564;1258;138421;-60
2024/01/13 03:59:56;;;;;;;11.30;4.50;;;;;;;2.79;78.29;101160.27;106904;1258;71947;-59
2024/01/13 04:02:23;;;;;;;10.90;5.00;;;;;;;2.78;78.30;101160.56;104408;1257;139630;-59
2024/01/13 04:04:50;;;;;;;9.90;5.20;;;;;;;2.78;78.37;101158.67;104668;1258;61380;-59
2024/01/13 04:07:17;;;;;;;9.50;5.30;;;;;;;2.79;78.40;101154.38;104589;1263;75681;-59
2024/01/13 04:09:44;;;;;;;10.00;5.50;;;;;;;2.80;78.50;101152.70;104863;1261;138131;-59
2024/01/13 04:12:11;;;;;;;14.30;6.10;;;;;;;2.81;78.37;101152.91;104712;1260;71280;-59
2024/01/13 04:14:37;;;;;;;10.80;5.00;;;;;;;2.83;78.64;101158.42;104456;1262;139026;-60
2024/01/13 04:17:05;;;;;;;12.90;5.40;;;;;;;2.85;78.45;101155.80;104461;1260;61268;-71
2024/01/13 04:19:32;;;;;;;8.60;4.70;;;;;;;2.87;78.62;101157.48;104653;1257;74624;-71
2024/01/13 04:21:58;;;;;;;10.20;5.40;;;;;;;2.86;78.42;101149.30;104846;1260;137890;-71
2024/01/13 04:24:25;;;;;;;10.30;5.50;;;;;;;2.87;78.43;101144.63;104961;1260;73725;-70
2024/01/13 04:26:51;;;;;;;8.70;5.20;;;;;;;2.86;78.39;101135.92;104462;1258;138406;-71
2024/01/13 04:29:18;;;;;;;9.60;4.80;;;;;;;2.86;78.29;101137.18;104744;1260;61354;-71
2024/01/13 04:31:45;;;;;;;11.80;5.50;;;;;;;2.85;78.43;101132.41;104689;1258;73416;-71
2024/01/13 04:34:12;;;;;;;7.40;5.00;;;;;;;2.84;78.18;101129.52;104533;1260;138606;-70
2024/01/13 04:36:39;;;;;;;10.70;5.40;;;;;;;2.83;78.23;101126.36;104645;1259;71906;-73
2024/01/13 04:39:05;;;;;;;12.00;5.40;;;;;;;2.82;78.27;101124.73;104568;1257;139125;-72
2024/01/13 04:41:32;;;;;;;9.40;4.60;;;;;;;2.80;78.23;101126.19;104645;1261;61719;-60
2024/01/13 04:43:58;;;;;;;8.30;4.80;;;;;;;2.79;78.31;101121.27;104814;1257;72511;-60
2024/01/13 04:46:25;;;;;;;9.80;5.00;;;;;;;2.79;78.44;101123.00;104542;1263;141294;-59
2024/01/13 04:48:52;;;;;;;8.00;4.10;;;;;;;2.78;78.45;101119.30;104616;1261;73813;-60
2024/01/13 04:51:18;;;;;;;10.60;4.10;;;;;;;2.78;78.34;101117.75;104789;1261;138671;-59
2024/01/13 04:53:45;;;;;;;7.00;4.50;;;;;;;2.79;78.41;101121.64;104878;1258;61912;-60
2024/01/13 04:56:12;;;;;;;11.00;4.40;;;;;;;2.80;78.39;101116.49;104811;1260;138724;-60
2024/01/13 04:58:38;;;;;;;9.20;5.00;;;;;;;2.81;78.40;101115.14;104872;1260;67284;-71
2024/01/13 05:01:05;;;;;;;8.80;4.60;;;;;;;2.80;78.35;101116.34;104703;1261;73078;-73
2024/01/13 05:03:32;;;;;;;10.00;5.00;;;;;;;2.81;78.33;101118.48;104595;1261;138131;-71
2024/01/13 05:05:58;;;;;;;8.70;4.60;;;;;;;2.82;78.37;101122.52;104665;1261;61283;-71
2024/01/13 05:08:25;;;;;;;7.40;4.30;;;;;;;2.83;78.38;101127.08;104487;1261;138505;-71
2024/01/13 05:10:52;;;;;;;9.40;4.30;;;;;;;2.84;78.28;101128.15;104894;1261;66881;-70
2024/01/13 05:13:19;;;;;;;11.10;5.20;;;;;;;2.85;78.34;101131.66;104779;1255;72237;-72
2024/01/13 05:15:46;;;;;;;10.00;5.00;;;;;;;2.84;78.28;101130.95;104730;1257;138695;-71
2024/01/13 05:18:12;;;;;;;7.30;4.60;;;;;;;2.83;78.38;101127.95;104828;1258;61649;-70
2024/01/13 05:20:39;;;;;;;8.90;5.10;;;;;;;2.84;78.38;101130.77;104694;1260;138799;-70
2024/01/13 05:23:07;;;;;;;11.20;5.20;;;;;;;2.84;78.30;101128.19;104888;1259;65815;-70
2024/01/13 05:25:34;;;;;;;13.20;5.20;;;;;;;2.85;78.42;101118.52;108919;1257;73073;-71
2024/01/13 05:28:03;;;;;;;12.90;5.70;;;;;;;2.87;78.37;101110.86;108827;1257;138321;-71
2024/01/13 05:30:32;;;;;;;12.90;6.30;;;;;;;2.90;78.40;101110.69;108904;1257;59620;-70
2024/01/13 05:32:59;;;;;;;13.00;8.20;;;;;;;2.92;78.47;101111.55;108555;1258;138236;-70
2024/01/13 05:35:26;;;;;;;11.20;6.10;;;;;;;2.95;78.30;101112.55;108613;1257;64958;-72
2024/01/13 05:37:53;;;;;;;11.10;6.70;;;;;;;2.97;78.27;101110.59;108536;1257;73037;-72
2024/01/13 05:40:24;;;;;;;9.80;6.20;;;;;;;2.97;78.05;101102.24;108671;1257;138133;-71
2024/01/13 05:42:50;;;;;;;15.40;7.10;;;;;;;2.98;78.24;101097.45;108843;1257;61426;-70
2024/01/13 05:45:17;;;;;;;12.60;6.50;;;;;;;3.00;78.08;101093.08;108585;1257;137764;-70
2024/01/13 05:47:44;;;;;;;10.30;6.90;;;;;;;3.00;78.04;101089.08;108737;1258;65615;-71
2024/01/13 05:50:10;;;;;;;10.10;6.90;;;;;;;2.98;77.95;101085.52;108565;1257;139840;-70
2024/01/13 05:52:38;;;;;;;16.90;7.40;;;;;;;2.97;78.03;101084.73;108721;1257;59250;-71
2024/01/13 05:55:05;;;;;;;12.20;7.40;;;;;;;2.96;77.91;101082.06;108566;1258;59354;-71
2024/01/13 05:57:32;;;;;;;12.70;7.90;;;;;;;2.94;77.80;101083.02;108572;1258;138428;-71
2024/01/13 05:59:59;;;;;;;11.60;7.60;;;;;;;2.95;78.06;101081.00;108674;1257;65904;-70
2024/01/13 06:02:26;;;;;;;15.60;8.10;;;;;;;2.97;78.03;101089.10;108591;1257;139559;-70
2024/01/13 06:04:52;;;;;;;20.20;8.10;;;;;;;2.99;78.04;101083.86;108808;1257;60047;-69
2024/01/13 06:07:19;;;;;;;18.10;8.40;;;;;;;3.00;77.99;101075.08;108701;1258;61560;-71
2024/01/13 06:09:45;;;;;;;15.60;8.10;;;;;;;3.02;77.95;101073.61;108557;1258;138824;-71
2024/01/13 06:12:12;;;;;;;14.00;7.40;;;;;;;3.01;77.94;101074.63;108538;1257;66731;-69
2024/01/13 06:14:41;;;;;;;14.60;7.70;;;;;;;3.01;77.98;101071.67;108407;1257;138816;-70
2024/01/13 06:17:08;;;;;;;12.90;8.40;;;;;;;3.01;77.89;101073.56;108662;1256;58915;-69
2024/01/13 06:19:35;;;;;;;14.60;7.50;;;;;;;3.01;77.94;101069.89;108737;1257;59532;-69
2024/01/13 06:22:02;;;;;;;15.40;7.60;;;;;;;3.00;77.90;101067.80;108591;1259;138527;-70
2024/01/13 06:24:29;;;;;;;12.60;7.40;;;;;;;2.99;77.85;101061.98;108625;1257;64466;-71
2024/01/13 06:26:56;;;;;;;13.00;6.60;;;;;;;2.97;77.98;101055.80;108528;1257;138285;-68
2024/01/13 06:29:23;;;;;;;11.90;7.80;;;;;;;2.95;78.08;101052.06;108694;1257;58982;-70
2024/01/13 06:31:49;;;;;;;12.80;7.60;;;;;;;2.93;78.11;101049.86;108566;1256;60884;-69
2024/01/13 06:34:16;;;;;;;12.90;7.10;;;;;;;2.91;78.15;101059.10;108210;1257;138324;-71
2024/01/13 06:36:43;;;;;;;11.60;6.70;;;;;;;2.88;78.25;101060.85;108702;1258;67469;-72
2024/01/13 06:39:09;;;;;;;10.40;6.50;;;;;;;2.85;78.22;101065.83;108828;1257;139081;-71
2024/01/13 06:41:36;;;;;;;12.70;6.90;;;;;;;2.81;78.20;101065.27;108883;1257;59270;-70
2024/01/13 06:44:03;;;;;;;9.00;6.60;;;;;;;2.80;78.23;101058.59;106096;1257;61285;-69
2024/01/13 06:46:29;;;;;;;9.60;5.60;;;;;;;2.78;78.31;101057.74;108515;1258;138220;-71
2024/01/13 06:48:56;;;;;;;10.30;6.20;;;;;;;2.76;78.38;101055.05;108686;1256;65961;-71
2024/01/13 06:51:23;;;;;;;11.40;7.20;;;;;;;2.75;78.38;101053.45;108450;1257;139637;-72
2024/01/13 06:53:49;;;;;;;9.90;7.70;;;;;;;2.73;78.30;101050.58;108733;1257;59026;-72
2024/01/13 06:56:16;;;;;;;12.90;6.90;;;;;;;2.72;78.34;101044.92;108558;1257;137652;-71
2024/01/13 06:58:42;;;;;;;10.20;6.40;;;;;;;2.68;78.37;101040.55;108694;1258;75209;-70
2024/01/13 07:01:13;;;;;;;11.70;6.60;;;;;;;2.63;78.23;101040.90;106692;1259;64901;-60
2024/01/13 07:03:41;;;;;;;12.00;7.00;;;;;;;2.59;78.52;101038.60;108549;1257;137964;-59
2024/01/13 07:06:08;;;;;;;10.70;6.80;;;;;;;2.55;78.24;101036.64;107984;1260;59233;-60
2024/01/13 07:08:34;;;;;;;9.50;7.40;;;;;;;2.52;78.34;101032.27;104622;1258;138255;-61
2024/01/13 07:11:01;;;;;;;15.90;6.10;;;;;;;2.51;78.39;101027.21;104746;1258;75354;-60
2024/01/13 07:13:28;;;;;;;9.20;5.30;;;;;;;2.47;78.33;101021.95;104485;1256;64001;-60
2024/01/13 07:15:54;;;;;;;9.70;5.90;;;;;;;2.45;78.31;101020.75;104652;1259;139230;-72
2024/01/13 07:18:21;;;;;;;10.00;5.50;;;;;;;2.43;78.41;101014.41;104623;1260;61354;-69
2024/01/13 07:20:48;;;;;;;10.20;5.40;;;;;;;2.43;78.50;101011.64;104465;1261;139006;-70
2024/01/13 07:23:15;;;;;;;8.00;4.70;;;;;;;2.44;78.47;101015.36;104687;1259;74778;-70
2024/01/13 07:25:42;;;;;;;9.60;5.00;;;;;;;2.45;78.36;101010.36;104691;1264;67006;-68
2024/01/13 07:28:09;;;;;;;11.60;5.20;;;;;;;2.47;78.32;101015.35;105561;1258;138062;-70
2024/01/13 07:30:36;;;;;;;10.70;5.10;;;;;;;2.48;78.25;101008.66;104404;1259;61226;-63
2024/01/13 07:33:03;;;;;;;9.10;5.10;;;;;;;2.50;78.26;101004.63;104468;1257;137820;-62
2024/01/13 07:35:30;;;;;;;12.80;5.60;;;;;;;2.50;78.30;100998.39;108684;1260;75252;-63
2024/01/13 07:37:56;;;;;;;10.50;6.20;;;;;;;2.52;78.45;100994.86;108710;1257;65344;-63
2024/01/13 07:40:23;;;;;;;12.90;6.20;;;;;;;2.55;78.45;100992.98;108609;1257;139017;-63
2024/01/13 07:42:50;;;;;;;9.50;5.10;;;;;;;2.57;78.40;100989.27;108669;1257;60799;-62
2024/01/13 07:45:17;;;;;;;8.90;4.50;;;;;;;2.57;78.21;100984.06;108386;1257;140175;-62
2024/01/13 07:47:43;;;;;;;11.50;4.20;;;;;;;2.60;78.24;100987.02;108643;1257;74707;-62
2024/01/13 07:50:10;;;;;;;8.90;4.70;;;;;;;2.63;78.24;100992.08;108558;1257;141419;-63
2024/01/13 07:52:37;;;;;;;10.40;4.70;;;;;;;2.66;78.31;100994.34;108656;1259;72516;-64
2024/01/13 07:55:04;;;;;;;7.60;4.50;;;;;;;2.68;78.05;100997.02;108550;1255;59792;-63
2024/01/13 07:57:31;;;;;;;8.90;5.40;;;;;;;2.71;78.21;100997.56;108570;1261;138814;-62
2024/01/13 07:59:57;;;;;;;17.00;10.60;;;;;;;2.73;78.03;100988.16;108394;1256;73233;-64
2024/01/13 08:02:24;;;;;;;45.70;38.80;;;;;;;2.77;78.03;100981.11;105566;1257;138575;-61
2024/01/13 08:04:51;;;;;;;26.90;15.20;;;;;;;2.78;78.07;100974.39;104723;1256;71857;-64
2024/01/13 08:07:19;;;;;;;25.00;18.80;;;;;;;2.78;77.87;100974.94;104572;1261;61516;-62
2024/01/13 08:09:47;;;;;;;12.60;10.40;;;;;;;2.78;78.04;100975.27;104440;1261;137804;-63
2024/01/13 08:12:14;;;;;;;12.90;9.40;;;;;;;2.72;77.83;100972.86;104796;1260;76297;-62
2024/01/13 08:14:41;;;;;;;19.40;13.80;;;;;;;2.68;77.73;100965.66;104715;1258;208150;-72
2024/01/13 08:17:07;;;;;;;67.10;45.70;;;;;;;2.62;77.74;100959.98;104946;1255;72423;-71
2024/01/13 08:19:36;;;;;;;37.00;27.50;;;;;;;2.59;77.56;100951.83;106866;1256;61308;-72
2024/01/13 08:22:04;;;;;;;37.10;27.20;;;;;;;2.58;77.79;100946.55;104873;1261;138519;-72
2024/01/13 08:24:30;;;;;;;34.10;23.40;;;;;;;2.58;77.72;100940.84;106779;1256;75307;-72
2024/01/13 08:26:57;;;;;;;16.00;12.60;;;;;;;2.60;77.88;100932.11;104834;1261;138726;-72
2024/01/13 08:29:24;;;;;;;15.40;13.80;;;;;;;2.59;77.84;100924.11;104788;1262;73517;-73
2024/01/13 08:31:51;;;;;;;26.30;19.20;;;;;;;2.63;78.11;100919.14;104626;1257;61497;-74
2024/01/13 08:34:18;;;;;;;36.50;24.80;;;;;;;2.66;78.06;100916.19;104662;1261;139278;-62
2024/01/13 08:36:44;;;;;;;42.00;27.90;;;;;;;2.70;77.82;100911.92;104719;1259;74973;-62
2024/01/13 08:39:11;;;;;;;89.90;65.40;;;;;;;2.72;77.81;100903.55;104296;1264;138080;-61
2024/01/13 08:41:38;;;;;;;205.40;124.80;;;;;;;2.73;77.51;100903.44;104778;1259;73142;-63
2024/01/13 08:44:05;;;;;;;175.10;97.50;;;;;;;2.75;77.59;100905.45;104505;1258;61357;-61
2024/01/13 08:46:32;;;;;;;213.40;122.90;;;;;;;2.76;77.35;100896.14;104464;1261;138076;-62
2024/01/13 08:48:59;;;;;;;71.70;50.60;;;;;;;2.75;77.20;100895.73;108612;1256;75348;-66
2024/01/13 08:51:25;;;;;;;63.00;41.90;;;;;;;2.73;77.02;100892.15;104580;1259;138173;-69
2024/01/13 08:53:52;;;;;;;40.60;27.80;;;;;;;2.68;77.02;100891.19;104740;1259;72066;-68
2024/01/13 08:56:19;;;;;;;36.10;22.80;;;;;;;2.66;77.01;100883.46;104494;1257;139319;-68
2024/01/13 08:58:45;;;;;;;52.40;30.20;;;;;;;2.70;77.07;100886.77;104681;1261;61175;-68
2024/01/13 09:01:12;;;;;;;23.90;17.60;;;;;;;2.74;77.24;100880.44;104795;1257;74933;-68
2024/01/13 09:03:40;;;;;;;8.70;7.30;;;;;;;2.77;77.29;100878.38;105071;1262;139545;-70
2024/01/13 09:06:07;;;;;;;35.50;26.40;;;;;;;2.80;77.24;100879.41;104862;1261;72713;-70
2024/01/13 09:08:34;;;;;;;57.10;38.70;;;;;;;2.83;77.25;100875.42;104934;1259;139218;-69
2024/01/13 09:11:00;;;;;;;26.60;17.80;;;;;;;2.84;77.20;100867.30;104880;1258;61356;-68
2024/01/13 09:13:27;;;;;;;12.50;9.30;;;;;;;2.88;77.19;100871.02;105024;1257;73706;-69
2024/01/13 09:15:54;;;;;;;28.50;16.40;;;;;;;2.95;77.00;100875.94;105015;1260;137658;-69
2024/01/13 09:18:21;;;;;;;23.00;16.20;;;;;;;2.98;76.75;100874.00;105093;1255;71897;-64
2024/01/13 09:20:47;;;;;;;13.90;11.90;;;;;;;2.96;76.48;100864.17;104967;1261;139092;-66
2024/01/13 09:23:14;;;;;;;18.30;11.50;;;;;;;2.97;76.55;100854.36;104994;1257;61243;-66
2024/01/13 09:25:41;;;;;;;9.50;7.50;;;;;;;2.97;76.24;100844.30;104736;1261;75577;-65
2024/01/13 09:28:09;;;;;;;13.80;9.20;;;;;;;2.91;76.14;100833.62;104795;1261;137592;-63
2024/01/13 09:30:36;;;;;;;12.10;8.00;;;;;;;2.85;76.11;100826.65;104758;1259;73020;-66
2024/01/13 09:33:05;;;;;;;12.00;8.00;;;;;;;2.83;76.16;100821.67;104787;1258;139658;-66
2024/01/13 09:35:31;;;;;;;10.10;7.60;;;;;;;2.83;76.11;100816.82;105117;1259;61275;-66
2024/01/13 09:37:58;;;;;;;7.80;5.40;;;;;;;2.85;76.14;100804.27;104741;1258;73828;-66
2024/01/13 09:40:25;;;;;;;11.50;7.20;;;;;;;2.94;76.27;100797.85;104769;1259;139539;-72
2024/01/13 09:43:06;;;;;;;9.10;5.90;;;;;;;3.02;76.11;100795.17;104942;1258;72865;-71
2024/01/13 09:45:33;;;;;;;9.90;6.60;;;;;;;3.07;76.02;100788.89;104654;1260;137657;-70
2024/01/13 09:48:00;;;;;;;11.20;7.30;;;;;;;3.14;75.84;100779.71;104667;1262;61355;-70
2024/01/13 09:50:26;;;;;;;12.40;9.00;;;;;;;3.15;75.63;100774.24;104641;1257;138998;-70
2024/01/13 09:52:53;;;;;;;9.80;6.20;;;;;;;3.18;75.66;100767.11;104761;1261;65651;-69
2024/01/13 09:55:20;;;;;;;7.90;5.60;;;;;;;3.24;75.47;100759.27;104668;1261;73058;-69
2024/01/13 09:57:47;;;;;;;13.40;6.90;;;;;;;3.24;75.25;100753.78;104582;1261;137418;-69
2024/01/13 10:00:14;;;;;;;8.40;5.20;;;;;;;3.29;75.27;100741.21;104552;1257;61295;-71
2024/01/13 10:02:40;;;;;;;8.40;4.90;;;;;;;3.33;75.07;100742.27;108876;1255;138671;-71
2024/01/13 10:05:07;;;;;;;7.40;4.30;;;;;;;3.37;74.98;100735.02;107027;1255;64304;-69
2024/01/13 10:07:35;;;;;;;7.30;4.50;;;;;;;3.39;74.80;100723.84;105067;1256;72986;-69
2024/01/13 10:10:03;;;;;;;9.20;4.50;;;;;;;3.42;74.66;100715.84;108748;1257;138720;-72
2024/01/13 10:12:29;;;;;;;8.40;4.60;;;;;;;3.43;74.45;100714.51;109020;1255;59076;-72
2024/01/13 10:14:56;;;;;;;6.80;4.70;;;;;;;3.46;74.60;100718.67;108894;1257;137310;-72
2024/01/13 10:17:24;;;;;;;10.30;5.10;;;;;;;3.50;74.50;100721.16;106430;1260;66338;-71
2024/01/13 10:19:51;;;;;;;9.10;5.00;;;;;;;3.54;74.33;100722.75;104575;1259;71532;-70
2024/01/13 10:22:18;;;;;;;8.30;4.80;;;;;;;3.57;74.20;100718.23;104668;1259;137717;-70
2024/01/13 10:24:45;;;;;;;8.60;4.50;;;;;;;3.61;74.32;100724.34;104664;1261;61150;-71
2024/01/13 10:27:12;;;;;;;9.30;5.10;;;;;;;3.66;74.12;100720.92;104619;1257;139044;-60
2024/01/13 10:29:41;;;;;;;6.30;5.00;;;;;;;3.68;73.92;100719.84;104867;1258;65440;-62
2024/01/13 10:32:10;;;;;;;8.00;5.10;;;;;;;3.68;73.70;100713.58;108772;1256;137758;-60
2024/01/13 10:34:37;;;;;;;9.20;5.90;;;;;;;3.65;73.71;100702.31;108739;1256;59397;-59
2024/01/13 10:37:08;;;;;;;8.70;6.20;;;;;;;3.61;73.60;100691.86;108839;1257;59326;-61
2024/01/13 10:39:35;;;;;;;26.70;14.80;;;;;;;3.59;73.67;100690.02;105681;1259;137688;-60
2024/01/13 10:42:01;;;;;;;18.60;11.70;;;;;;;3.58;73.64;100687.92;104717;1261;66818;-60
2024/01/13 10:44:28;;;;;;;15.30;9.40;;;;;;;3.52;73.40;100677.52;104481;1258;138433;-62
2024/01/13 10:46:55;;;;;;;11.50;8.00;;;;;;;3.48;73.38;100665.88;104675;1258;61378;-61
2024/01/13 10:49:28;;;;;;;14.30;8.10;;;;;;;3.44;73.44;100661.18;104682;1259;61480;-60
2024/01/13 10:51:57;;;;;;;10.00;6.70;;;;;;;3.41;73.50;100665.14;108792;1258;138495;-60
2024/01/13 10:54:25;;;;;;;9.90;7.00;;;;;;;3.36;73.51;100656.92;108902;1258;64336;-61
2024/01/13 10:56:53;;;;;;;13.90;10.20;;;;;;;3.36;73.59;100655.69;108496;1257;138402;-61
2024/01/13 10:59:20;;;;;;;15.80;10.40;;;;;;;3.38;73.67;100652.34;108934;1257;59649;-60
2024/01/13 11:01:46;;;;;;;13.40;9.10;;;;;;;3.42;73.57;100649.92;108917;1255;61809;-61
2024/01/13 11:04:13;;;;;;;13.90;8.80;;;;;;;3.41;73.53;100647.13;108611;1258;138881;-61
2024/01/13 11:06:41;;;;;;;11.60;8.30;;;;;;;3.41;73.61;100643.30;108721;1263;64270;-60
2024/01/13 11:09:11;;;;;;;11.80;7.80;;;;;;;3.45;73.60;100633.27;108861;1257;138760;-60
2024/01/13 11:11:43;;;;;;;11.40;7.20;;;;;;;3.52;73.67;100627.71;108942;1257;59169;-60
2024/01/13 11:14:12;;;;;;;10.00;7.00;;;;;;;3.59;73.63;100622.20;108866;1260;138076;-61